Time;durP1;ratioP1;P1;durP2;ratioP2;P2;SDS_P1;SDS_P2;PMS_P1;PMS_P2;Temp;Humidity;BMP_temperature;BMP_pressure;BME280_temperature;BME280_humidity;BME280_pressure;Samples;Min_cycle;Max_cycle;Signal;HPM_P1;HPM_P2
2023/07/19 00:01:04;;;;;;;8.13;3.63;;;20.20;62.40;;;;;;6138570;23;20025;-93
2023/07/19 00:03:32;;;;;;;8.03;3.20;;;20.10;63.10;;;;;;6138520;23;20104;-93
2023/07/19 00:06:01;;;;;;;6.85;3.38;;;20.00;62.90;;;;;;6138400;23;20039;-94
2023/07/19 00:08:30;;;;;;;7.93;3.05;;;19.90;63.10;;;;;;6138633;23;20459;-94
2023/07/19 00:10:57;;;;;;;8.65;3.42;;;19.80;63.30;;;;;;6138300;23;20100;-94
2023/07/19 00:13:24;;;;;;;9.63;3.33;;;19.70;63.50;;;;;;6138424;23;20024;-93
2023/07/19 00:15:51;;;;;;;6.73;2.87;;;19.70;63.80;;;;;;6138485;23;20535;-94
2023/07/19 00:18:18;;;;;;;7.53;3.15;;;19.60;63.30;;;;;;6138348;23;20021;-93
2023/07/19 00:20:45;;;;;;;7.85;3.10;;;19.60;63.00;;;;;;6138322;23;20017;-93
2023/07/19 00:23:12;;;;;;;8.35;3.30;;;19.60;63.20;;;;;;6138513;23;20013;-93
2023/07/19 00:25:40;;;;;;;7.25;2.90;;;19.60;62.90;;;;;;6162659;23;20017;-93
2023/07/19 00:28:07;;;;;;;9.80;3.67;;;19.70;62.00;;;;;;6138320;23;20025;-94
2023/07/19 00:30:34;;;;;;;8.68;3.35;;;19.60;62.50;;;;;;6138298;23;20080;-93
2023/07/19 00:33:04;;;;;;;7.13;3.05;;;19.60;62.10;;;;;;6138920;23;20025;-94
2023/07/19 00:35:33;;;;;;;7.70;3.22;;;19.60;62.60;;;;;;6138619;23;20024;-94
2023/07/19 00:38:00;;;;;;;7.88;3.28;;;19.70;62.00;;;;;;6138076;23;20076;-94
2023/07/19 00:40:27;;;;;;;7.03;3.07;;;19.60;62.40;;;;;;6162705;23;20439;-93
2023/07/19 00:42:57;;;;;;;9.63;3.17;;;19.60;62.30;;;;;;6138552;23;20350;-93
2023/07/19 00:45:27;;;;;;;6.68;3.25;;;19.60;61.80;;;;;;6138269;23;20016;-94
2023/07/19 00:47:55;;;;;;;7.90;3.92;;;19.60;62.30;;;;;;6138261;23;20028;-93
2023/07/19 00:50:23;;;;;;;8.38;2.95;;;19.60;62.30;;;;;;6137927;23;20025;-93
2023/07/19 00:52:51;;;;;;;7.13;2.83;;;19.60;62.80;;;;;;6138073;23;20021;-93
2023/07/19 00:55:19;;;;;;;7.40;3.00;;;19.60;62.60;;;;;;6137792;23;20447;-93
2023/07/19 00:57:47;;;;;;;6.30;3.03;;;19.60;62.90;;;;;;6138415;23;20071;-93
2023/07/19 01:00:15;;;;;;;10.88;3.40;;;19.60;62.30;;;;;;6137727;23;20013;-94
2023/07/19 01:02:44;;;;;;;7.10;3.22;;;19.60;62.20;;;;;;6138157;23;20470;-93
2023/07/19 01:05:11;;;;;;;6.80;3.37;;;19.70;62.30;;;;;;6137967;23;20017;-93
2023/07/19 01:07:39;;;;;;;6.75;3.15;;;19.60;61.40;;;;;;6137866;23;20021;-94
2023/07/19 01:10:07;;;;;;;8.77;3.10;;;19.60;62.10;;;;;;6137951;23;20052;-94
2023/07/19 01:12:35;;;;;;;8.55;3.30;;;19.60;62.70;;;;;;6137984;23;20120;-94
2023/07/19 01:15:08;;;;;;;8.95;3.72;;;19.50;62.30;;;;;;6162390;23;20013;-93
2023/07/19 01:17:36;;;;;;;7.57;3.20;;;19.50;62.80;;;;;;6137975;23;20017;-93
2023/07/19 01:20:06;;;;;;;8.23;3.28;;;19.50;62.60;;;;;;6162491;23;20428;-94
2023/07/19 01:22:34;;;;;;;9.82;3.50;;;19.40;62.80;;;;;;6138260;23;20065;-94
2023/07/19 01:25:03;;;;;;;9.38;3.45;;;19.30;62.90;;;;;;6138096;23;20028;-94
2023/07/19 01:27:30;;;;;;;8.25;4.03;;;19.20;63.30;;;;;;6162299;23;20343;-93
2023/07/19 01:29:57;;;;;;;6.57;3.03;;;19.20;63.50;;;;;;6137723;23;20017;-94
2023/07/19 01:32:24;;;;;;;7.00;3.03;;;19.20;63.00;;;;;;6137028;23;20018;-93
2023/07/19 01:34:51;;;;;;;7.68;3.17;;;19.30;63.40;;;;;;6137637;23;20013;-93
2023/07/19 01:37:18;;;;;;;8.65;3.28;;;19.30;63.40;;;;;;6161798;23;20017;-93
2023/07/19 01:39:45;;;;;;;8.38;3.25;;;19.40;63.50;;;;;;6137721;23;20013;-93
2023/07/19 01:42:12;;;;;;;8.37;3.13;;;19.30;63.10;;;;;;6137532;23;20340;-93
2023/07/19 01:44:39;;;;;;;6.85;3.17;;;19.20;63.00;;;;;;6137284;23;20507;-94
2023/07/19 01:47:06;;;;;;;7.32;3.03;;;19.20;63.60;;;;;;6137677;23;20099;-93
2023/07/19 01:49:33;;;;;;;8.73;3.35;;;19.20;63.90;;;;;;6137435;23;20028;-93
2023/07/19 01:52:01;;;;;;;7.55;3.00;;;19.30;63.70;;;;;;6161864;23;20017;-94
2023/07/19 01:54:27;;;;;;;7.43;2.87;;;19.40;63.70;;;;;;6137145;23;20029;-94
2023/07/19 01:56:54;;;;;;;10.15;3.58;;;19.40;63.50;;;;;;6137230;23;20017;-93
2023/07/19 01:59:22;;;;;;;8.90;3.60;;;19.40;63.40;;;;;;6161905;23;20024;-93
2023/07/19 02:01:49;;;;;;;9.25;3.13;;;19.40;63.00;;;;;;6137348;23;20044;-93
2023/07/19 02:04:16;;;;;;;7.43;3.05;;;19.30;63.40;;;;;;6137586;23;20388;-94
2023/07/19 02:06:43;;;;;;;8.00;3.03;;;19.30;63.10;;;;;;6137513;23;20024;-94
2023/07/19 02:09:10;;;;;;;8.15;3.70;;;19.30;63.30;;;;;;6137287;23;20025;-94
2023/07/19 02:11:37;;;;;;;8.15;3.47;;;19.20;63.40;;;;;;6137396;23;20031;-93
2023/07/19 02:14:04;;;;;;;7.40;3.10;;;19.10;63.50;;;;;;6137479;23;20362;-94
2023/07/19 02:16:32;;;;;;;8.70;3.55;;;19.00;63.80;;;;;;6137443;23;20422;-94
2023/07/19 02:18:59;;;;;;;8.53;3.30;;;19.00;64.20;;;;;;6137585;23;20016;-94
2023/07/19 02:21:26;;;;;;;7.18;3.40;;;19.00;64.10;;;;;;6161475;23;20021;-93
2023/07/19 02:23:53;;;;;;;8.85;3.30;;;18.90;64.20;;;;;;6137415;23;20027;-94
2023/07/19 02:26:21;;;;;;;6.60;3.10;;;18.80;64.40;;;;;;6137275;23;20032;-93
2023/07/19 02:28:47;;;;;;;7.47;2.97;;;18.70;64.70;;;;;;6137462;23;20087;-94
2023/07/19 02:31:15;;;;;;;9.80;3.67;;;18.80;65.10;;;;;;6161749;23;20406;-94
2023/07/19 02:33:42;;;;;;;7.28;3.25;;;18.80;65.40;;;;;;6137188;23;20021;-93
2023/07/19 02:36:11;;;;;;;7.85;3.33;;;19.00;64.70;;;;;;6137171;23;20028;-94
2023/07/19 02:38:39;;;;;;;8.52;3.03;;;19.00;64.60;;;;;;6137437;23;20021;-93
2023/07/19 02:41:10;;;;;;;8.70;3.30;;;19.00;64.10;;;;;;6137463;23;20013;-93
2023/07/19 02:43:37;;;;;;;9.73;3.47;;;19.00;64.20;;;;;;6138406;23;20033;-95
2023/07/19 02:46:04;;;;;;;8.73;3.63;;;19.00;64.70;;;;;;6139355;23;20031;-93
2023/07/19 02:48:31;;;;;;;11.13;3.53;;;18.80;64.40;;;;;;6139614;23;20111;-92
2023/07/19 02:50:58;;;;;;;9.13;3.97;;;18.80;64.90;;;;;;6139882;23;20021;-93
2023/07/19 02:53:26;;;;;;;9.02;3.55;;;18.70;64.90;;;;;;6139180;23;20403;-93
2023/07/19 02:55:53;;;;;;;7.70;3.73;;;18.60;65.30;;;;;;6139176;23;20036;-93
2023/07/19 02:58:20;;;;;;;7.00;3.22;;;18.60;65.40;;;;;;6138888;23;20021;-93
2023/07/19 03:00:47;;;;;;;8.27;3.42;;;18.60;66.00;;;;;;6139291;23;20455;-92
2023/07/19 03:03:14;;;;;;;7.95;3.53;;;18.60;65.80;;;;;;6140387;23;20538;-92
2023/07/19 03:05:44;;;;;;;8.57;3.53;;;18.50;65.90;;;;;;6140908;23;20088;-93
2023/07/19 03:08:12;;;;;;;9.50;3.63;;;18.50;66.40;;;;;;6140235;23;20017;-92
2023/07/19 03:10:39;;;;;;;8.55;3.90;;;18.50;66.30;;;;;;6142201;23;20017;-92
2023/07/19 03:13:07;;;;;;;8.25;3.20;;;18.50;66.40;;;;;;6167583;23;20440;-92
2023/07/19 03:15:35;;;;;;;7.93;3.05;;;18.50;66.60;;;;;;6142873;23;20021;-92
2023/07/19 03:18:03;;;;;;;7.43;3.20;;;18.50;67.10;;;;;;6165773;23;20043;-92
2023/07/19 03:20:31;;;;;;;8.67;3.33;;;18.50;66.90;;;;;;6141142;23;20412;-92
2023/07/19 03:23:00;;;;;;;8.18;3.67;;;18.50;66.80;;;;;;6141025;23;20017;-91
2023/07/19 03:25:28;;;;;;;7.53;3.38;;;18.40;67.20;;;;;;6140823;23;20036;-92
2023/07/19 03:27:57;;;;;;;7.82;3.20;;;18.40;66.70;;;;;;6142015;23;20024;-92
2023/07/19 03:30:24;;;;;;;9.50;3.42;;;18.40;67.20;;;;;;6143374;23;20036;-92
2023/07/19 03:32:52;;;;;;;7.63;3.27;;;18.40;66.80;;;;;;6142378;23;20329;-92
2023/07/19 03:35:20;;;;;;;8.43;3.78;;;18.50;66.60;;;;;;6142210;23;20021;-92
2023/07/19 03:37:49;;;;;;;10.13;3.63;;;18.50;66.50;;;;;;6141669;23;20024;-93
2023/07/19 03:40:17;;;;;;;9.95;3.85;;;18.50;66.70;;;;;;6139614;23;20048;-92
2023/07/19 03:42:45;;;;;;;6.97;3.20;;;18.50;66.70;;;;;;6138472;23;20100;-93
2023/07/19 03:45:13;;;;;;;10.73;3.70;;;18.60;67.00;;;;;;6138524;23;20040;-93
2023/07/19 03:47:40;;;;;;;10.82;3.33;;;18.70;66.90;;;;;;6138458;23;20348;-91
2023/07/19 03:50:08;;;;;;;9.65;4.07;;;18.80;67.00;;;;;;6139398;23;20352;-93
2023/07/19 03:52:36;;;;;;;8.82;3.90;;;19.00;66.90;;;;;;6138760;23;20075;-96
2023/07/19 03:55:04;;;;;;;11.38;4.82;;;19.10;66.70;;;;;;6137761;23;20024;-93
2023/07/19 03:57:34;;;;;;;9.40;4.50;;;19.20;66.20;;;;;;6138600;23;20025;-93
2023/07/19 04:00:03;;;;;;;12.20;4.30;;;19.30;66.50;;;;;;6138054;23;20020;-94
2023/07/19 04:02:43;;;;;;;11.50;4.65;;;19.30;66.50;;;;;;6166350;23;20025;-93
2023/07/19 04:05:12;;;;;;;12.98;4.97;;;19.20;66.70;;;;;;6138372;23;20023;-93
2023/07/19 04:07:39;;;;;;;26.13;5.07;;;19.20;66.60;;;;;;6137841;23;20088;-94
2023/07/19 04:10:06;;;;;;;11.00;4.17;;;19.20;67.00;;;;;;6137947;23;20032;-94
2023/07/19 04:12:33;;;;;;;12.13;4.35;;;19.20;67.00;;;;;;6138158;23;20021;-95
2023/07/19 04:15:01;;;;;;;11.27;4.03;;;19.20;67.00;;;;;;6138063;23;20032;-94
2023/07/19 04:17:29;;;;;;;8.30;3.97;;;19.30;67.20;;;;;;6162172;23;20028;-94
2023/07/19 04:19:56;;;;;;;11.05;4.30;;;19.30;67.10;;;;;;6138461;23;20324;-94
2023/07/19 04:22:23;;;;;;;10.00;4.40;;;19.50;67.00;;;;;;6137962;23;20391;-95
2023/07/19 04:24:54;;;;;;;10.63;3.40;;;19.50;66.90;;;;;;6138489;23;20394;-94
2023/07/19 04:27:22;;;;;;;8.85;3.85;;;19.50;67.20;;;;;;6162345;23;20100;-94
2023/07/19 04:29:49;;;;;;;11.90;4.10;;;19.60;67.20;;;;;;6137688;23;20021;-94
2023/07/19 04:32:16;;;;;;;10.50;3.88;;;19.50;67.20;;;;;;6137898;23;20447;-93
2023/07/19 04:34:44;;;;;;;9.60;2.83;;;19.50;67.50;;;;;;6137690;23;20358;-94
2023/07/19 04:37:11;;;;;;;10.48;3.25;;;19.50;67.70;;;;;;6137804;23;20028;-94
2023/07/19 04:39:38;;;;;;;8.98;3.00;;;19.40;67.90;;;;;;6137697;23;20052;-94
2023/07/19 04:42:06;;;;;;;11.20;3.70;;;19.50;67.90;;;;;;6138051;23;20072;-94
2023/07/19 04:44:34;;;;;;;10.55;4.10;;;19.60;67.50;;;;;;6138319;23;20017;-94
2023/07/19 04:47:01;;;;;;;11.77;3.57;;;19.70;67.30;;;;;;6137945;23;20021;-93
2023/07/19 04:49:28;;;;;;;9.02;3.45;;;19.80;67.50;;;;;;6137933;23;20103;-94
2023/07/19 04:51:56;;;;;;;7.75;3.40;;;19.90;67.30;;;;;;6137610;23;20028;-94
2023/07/19 04:54:24;;;;;;;9.32;3.35;;;20.00;67.40;;;;;;6161361;23;20061;-94
2023/07/19 04:56:51;;;;;;;8.40;2.97;;;20.10;67.40;;;;;;6137448;23;20013;-94
2023/07/19 04:59:18;;;;;;;8.57;2.70;;;20.10;67.50;;;;;;6161861;23;20044;-94
2023/07/19 05:01:46;;;;;;;7.70;3.10;;;20.20;67.10;;;;;;6137149;23;20021;-94
2023/07/19 05:04:13;;;;;;;9.55;3.70;;;20.40;66.70;;;;;;6137453;23;20017;-95
2023/07/19 05:06:40;;;;;;;10.05;3.30;;;20.40;66.20;;;;;;6137169;23;20439;-94
2023/07/19 05:09:10;;;;;;;9.73;3.40;;;20.40;64.90;;;;;;6137408;23;20021;-95
2023/07/19 05:11:37;;;;;;;17.97;3.80;;;20.60;64.40;;;;;;6137427;23;20032;-94
2023/07/19 05:14:04;;;;;;;11.55;3.58;;;20.60;65.10;;;;;;6137182;23;20037;-94
2023/07/19 05:16:33;;;;;;;11.18;3.90;;;20.80;64.70;;;;;;6137593;23;20021;-95
2023/07/19 05:19:01;;;;;;;10.15;3.42;;;20.90;65.20;;;;;;6137287;23;20436;-94
2023/07/19 05:21:29;;;;;;;12.95;3.40;;;21.10;64.80;;;;;;6137310;23;20084;-94
2023/07/19 05:23:59;;;;;;;10.80;3.67;;;21.10;65.00;;;;;;6137509;23;20023;-95
2023/07/19 05:26:26;;;;;;;10.50;3.88;;;21.10;65.50;;;;;;6137608;23;20017;-94
2023/07/19 05:28:54;;;;;;;11.18;3.70;;;21.10;64.30;;;;;;6137997;23;20027;-94
2023/07/19 05:31:21;;;;;;;15.05;5.13;;;21.20;64.50;;;;;;6137196;23;20020;-94
2023/07/19 05:33:49;;;;;;;11.60;4.70;;;21.40;64.20;;;;;;6138236;23;20399;-95
2023/07/19 05:36:16;;;;;;;11.70;5.00;;;21.50;64.20;;;;;;6162315;23;20033;-95
2023/07/19 05:38:43;;;;;;;12.77;5.18;;;21.60;64.30;;;;;;6137064;23;20055;-93
2023/07/19 05:41:10;;;;;;;14.40;5.47;;;21.60;63.70;;;;;;6137346;23;20088;-93
2023/07/19 05:43:38;;;;;;;12.13;5.07;;;21.70;63.60;;;;;;6161468;23;20099;-94
2023/07/19 05:46:09;;;;;;;14.00;5.63;;;21.80;63.70;;;;;;6137390;23;20023;-93
2023/07/19 05:48:36;;;;;;;16.50;5.83;;;21.90;63.10;;;;;;6161763;23;20031;-93
2023/07/19 05:51:05;;;;;;;15.77;5.45;;;22.00;62.40;;;;;;6161386;23;20025;-92
2023/07/19 05:53:33;;;;;;;15.15;5.05;;;22.10;62.50;;;;;;6131988;23;20112;-93
2023/07/19 05:56:00;;;;;;;16.65;6.00;;;22.10;63.00;;;;;;6156279;23;20100;-92
2023/07/19 05:58:28;;;;;;;17.75;6.40;;;22.20;63.00;;;;;;6132105;23;20053;-92
2023/07/19 06:00:56;;;;;;;18.47;6.50;;;22.30;63.20;;;;;;6132264;23;20024;-93
2023/07/19 06:03:23;;;;;;;14.50;5.97;;;22.50;62.50;;;;;;6132192;23;20045;-93
2023/07/19 06:05:51;;;;;;;18.95;6.25;;;22.60;61.30;;;;;;6132365;23;20092;-93
2023/07/19 06:08:18;;;;;;;15.18;5.32;;;22.50;62.00;;;;;;6156318;23;20474;-93
2023/07/19 06:10:51;;;;;;;15.15;5.72;;;22.50;63.00;;;;;;6133226;23;20535;-93
2023/07/19 06:13:19;;;;;;;12.87;5.37;;;22.50;62.70;;;;;;6132159;23;20025;-93
2023/07/19 06:15:46;;;;;;;15.85;5.93;;;22.50;62.30;;;;;;6132510;23;20403;-93
2023/07/19 06:18:13;;;;;;;17.48;6.50;;;22.60;62.30;;;;;;6131572;23;20029;-93
2023/07/19 06:20:59;;;;;;;18.48;6.40;;;22.60;62.60;;;;;;6156761;23;20032;-92
2023/07/19 06:23:26;;;;;;;17.20;6.60;;;22.70;62.70;;;;;;6132023;23;20021;-92
2023/07/19 06:25:53;;;;;;;15.67;6.63;;;22.80;62.60;;;;;;6131778;23;20080;-93
2023/07/19 06:28:20;;;;;;;14.30;6.25;;;22.90;62.30;;;;;;6156375;23;20448;-93
2023/07/19 06:30:47;;;;;;;16.50;6.38;;;22.90;62.30;;;;;;6156277;23;20027;-93
2023/07/19 06:33:15;;;;;;;12.48;5.40;;;22.90;62.50;;;;;;6131766;23;20028;-93
2023/07/19 06:35:43;;;;;;;17.20;5.82;;;23.00;62.80;;;;;;6132034;23;20075;-93
2023/07/19 06:38:10;;;;;;;13.60;5.50;;;23.10;61.80;;;;;;6156142;23;20022;-93
2023/07/19 06:40:37;;;;;;;15.45;4.57;;;23.20;61.90;;;;;;6156661;23;20021;-95
2023/07/19 06:43:06;;;;;;;12.13;4.35;;;23.40;59.90;;;;;;6157693;23;20444;-95
2023/07/19 06:45:33;;;;;;;10.57;4.07;;;23.50;58.20;;;;;;6131589;23;20052;-94
2023/07/19 06:48:00;;;;;;;10.35;4.30;;;23.50;58.50;;;;;;6132052;23;20056;-95
2023/07/19 06:50:27;;;;;;;10.77;3.67;;;23.60;59.20;;;;;;6156225;23;20048;-96
2023/07/19 06:52:54;;;;;;;9.80;3.58;;;23.70;58.00;;;;;;6160900;23;20088;-95
2023/07/19 06:55:23;;;;;;;9.88;3.95;;;23.80;56.20;;;;;;6136749;23;20032;-95
2023/07/19 06:57:50;;;;;;;10.80;4.10;;;23.80;55.40;;;;;;6136449;23;20024;-95
2023/07/19 07:00:17;;;;;;;8.43;3.67;;;23.90;54.70;;;;;;6136880;23;20021;-94
2023/07/19 07:02:46;;;;;;;10.10;3.73;;;23.80;55.10;;;;;;6161279;23;20451;-95
2023/07/19 07:05:13;;;;;;;9.18;3.63;;;23.80;55.90;;;;;;6136482;23;20021;-95
2023/07/19 07:07:40;;;;;;;8.23;3.20;;;23.90;56.00;;;;;;6136904;23;20042;-94
2023/07/19 07:10:09;;;;;;;9.40;4.10;;;24.00;56.00;;;;;;6136583;23;20021;-95
2023/07/19 07:12:37;;;;;;;9.15;3.63;;;24.20;55.10;;;;;;6136617;23;20021;-96
2023/07/19 07:15:04;;;;;;;9.67;3.27;;;24.30;56.60;;;;;;6136642;23;20108;-95
2023/07/19 07:17:32;;;;;;;8.60;3.63;;;24.40;55.40;;;;;;6136291;23;20028;-95
2023/07/19 07:19:59;;;;;;;9.27;4.05;;;24.50;54.70;;;;;;6136436;23;20017;-94
2023/07/19 07:22:26;;;;;;;10.35;4.00;;;24.60;54.90;;;;;;6136656;23;20112;-95
2023/07/19 07:24:53;;;;;;;9.65;4.00;;;24.70;55.70;;;;;;6136538;23;20021;-96
2023/07/19 07:27:20;;;;;;;12.23;4.23;;;24.80;54.60;;;;;;6136624;23;20021;-94
2023/07/19 07:29:48;;;;;;;12.23;3.92;;;24.80;54.50;;;;;;6137880;23;20021;-95
2023/07/19 07:32:15;;;;;;;11.98;4.20;;;25.00;54.50;;;;;;6138909;23;20408;-95
2023/07/19 07:34:42;;;;;;;9.43;3.97;;;25.10;55.50;;;;;;6138612;23;20025;-95
2023/07/19 07:37:09;;;;;;;12.20;4.05;;;25.30;54.20;;;;;;6138172;23;20104;-95
2023/07/19 07:39:36;;;;;;;9.83;4.20;;;25.50;53.60;;;;;;6138708;23;20052;-95
2023/07/19 07:42:04;;;;;;;10.55;4.18;;;25.50;53.80;;;;;;6138388;23;20444;-95
2023/07/19 07:44:31;;;;;;;10.43;4.35;;;25.50;55.30;;;;;;6137969;23;20021;-95
2023/07/19 07:46:58;;;;;;;9.13;3.80;;;25.50;53.30;;;;;;6138309;23;20017;-95
2023/07/19 07:49:25;;;;;;;9.52;4.35;;;25.60;53.30;;;;;;6137995;23;20100;-95
2023/07/19 07:51:52;;;;;;;9.53;4.13;;;25.70;53.10;;;;;;6138200;23;20013;-94
2023/07/19 07:54:20;;;;;;;12.80;4.28;;;25.80;52.20;;;;;;6138033;23;20447;-94
2023/07/19 07:56:47;;;;;;;11.23;4.18;;;25.90;52.70;;;;;;6137966;23;20447;-94
2023/07/19 07:59:15;;;;;;;10.48;3.92;;;25.80;52.40;;;;;;6138095;23;20024;-94
2023/07/19 08:01:42;;;;;;;11.63;4.10;;;25.90;53.30;;;;;;6138222;23;20443;-94
2023/07/19 08:04:10;;;;;;;9.53;3.90;;;25.90;52.80;;;;;;6138035;23;20027;-95
2023/07/19 08:06:37;;;;;;;10.95;4.25;;;25.80;53.10;;;;;;6137947;23;20017;-94
2023/07/19 08:09:04;;;;;;;13.02;4.55;;;25.80;54.90;;;;;;6137975;23;20025;-95
2023/07/19 08:11:34;;;;;;;10.32;4.10;;;26.00;56.40;;;;;;6137959;23;20419;-94
2023/07/19 08:14:01;;;;;;;10.18;3.90;;;26.40;54.00;;;;;;6138315;23;20474;-95
2023/07/19 08:16:28;;;;;;;9.77;3.80;;;26.60;51.80;;;;;;6137889;23;20112;-94
2023/07/19 08:18:55;;;;;;;12.05;5.38;;;26.80;50.30;;;;;;6162016;23;20017;-93
2023/07/19 08:21:23;;;;;;;10.98;4.53;;;26.80;50.70;;;;;;6137599;23;20021;-94
2023/07/19 08:24:03;;;;;;;11.68;4.75;;;26.90;51.60;;;;;;6162352;23;20334;-93
2023/07/19 08:26:30;;;;;;;23.15;5.03;;;26.90;51.10;;;;;;6137842;23;20017;-93
2023/07/19 08:28:57;;;;;;;10.73;4.40;;;27.00;52.90;;;;;;6137602;23;20017;-94
2023/07/19 08:31:24;;;;;;;11.20;4.22;;;26.90;52.60;;;;;;6137699;23;20080;-94
2023/07/19 08:33:55;;;;;;;12.45;4.65;;;27.00;52.60;;;;;;6137826;23;20021;-94
2023/07/19 08:36:22;;;;;;;14.90;4.95;;;27.00;52.10;;;;;;6137462;23;20021;-94
2023/07/19 08:38:50;;;;;;;11.35;5.25;;;27.10;53.20;;;;;;6137519;23;20017;-94
2023/07/19 08:41:21;;;;;;;12.93;4.90;;;27.00;52.80;;;;;;6161695;23;20021;-94
2023/07/19 08:43:54;;;;;;;13.27;4.47;;;26.90;53.10;;;;;;6138096;23;20013;-94
2023/07/19 08:46:22;;;;;;;10.45;5.00;;;26.60;53.40;;;;;;6137779;23;20052;-93
2023/07/19 08:48:49;;;;;;;12.80;5.50;;;26.40;54.10;;;;;;6137524;23;20481;-93
2023/07/19 08:51:18;;;;;;;11.50;5.05;;;26.40;54.90;;;;;;6137972;23;20025;-94
2023/07/19 08:53:46;;;;;;;13.13;4.60;;;26.40;54.70;;;;;;6161994;23;20111;-94
2023/07/19 08:56:14;;;;;;;13.05;5.05;;;26.60;55.40;;;;;;6137755;23;20021;-94
2023/07/19 08:58:43;;;;;;;10.63;5.65;;;26.40;54.60;;;;;;6137358;23;20021;-95
2023/07/19 09:01:14;;;;;;;13.57;5.38;;;26.10;54.30;;;;;;6137898;23;20017;-96
2023/07/19 09:03:42;;;;;;;11.50;5.13;;;26.10;54.40;;;;;;6137785;23;20106;-94
2023/07/19 09:10:41;;;;;;;10.05;5.40;;;26.50;55.60;;;;;;6188154;23;20012;-94
2023/07/19 09:13:08;;;;;;;10.82;5.10;;;26.70;55.20;;;;;;6137170;23;20017;-93
2023/07/19 09:15:36;;;;;;;10.68;5.22;;;26.80;55.10;;;;;;6137173;23;20024;-94
2023/07/19 09:18:13;;;;;;;11.80;4.93;;;26.90;53.90;;;;;;6137253;23;20099;-93
2023/07/19 09:21:30;;;;;;;12.13;4.97;;;27.00;54.00;;;;;;6146752;23;20100;-94
2023/07/19 09:24:02;;;;;;;10.23;5.20;;;27.10;53.70;;;;;;6137532;23;20017;-93
2023/07/19 09:26:52;;;;;;;11.63;5.15;;;27.20;54.00;;;;;;6137263;23;20017;-94
2023/07/19 09:29:20;;;;;;;10.52;4.85;;;27.50;55.20;;;;;;6137298;23;20396;-94
2023/07/19 09:32:02;;;;;;;12.35;4.80;;;27.70;54.60;;;;;;6138070;23;20455;-93
2023/07/19 09:34:38;;;;;;;9.90;4.67;;;27.80;52.60;;;;;;6137614;23;20025;-94
2023/07/19 09:37:06;;;;;;;12.07;5.82;;;27.90;53.40;;;;;;6137745;23;20021;-94
2023/07/19 09:39:35;;;;;;;10.93;6.32;;;27.90;53.30;;;;;;6136899;23;20021;-93
2023/07/19 09:42:08;;;;;;;10.55;5.57;;;27.80;52.70;;;;;;6137254;23;20017;-94
2023/07/19 09:44:36;;;;;;;12.43;5.45;;;27.80;51.40;;;;;;6137063;23;20028;-94
2023/07/19 09:47:08;;;;;;;12.50;5.77;;;27.90;53.20;;;;;;6136916;23;20067;-93
2023/07/19 09:49:53;;;;;;;10.02;5.93;;;28.10;52.70;;;;;;6140771;23;20017;-94
2023/07/19 09:52:25;;;;;;;11.63;5.78;;;28.10;52.60;;;;;;6137293;23;20017;-94
2023/07/19 09:54:53;;;;;;;12.40;5.72;;;28.30;52.20;;;;;;6137221;23;20072;-94
2023/07/19 09:57:27;;;;;;;9.18;5.78;;;28.10;51.70;;;;;;6137493;23;20016;-94
2023/07/19 10:00:01;;;;;;;11.87;6.10;;;28.10;52.90;;;;;;6137410;23;20040;-93
2023/07/19 10:02:32;;;;;;;9.82;5.65;;;28.10;52.20;;;;;;6162900;23;20021;-94
2023/07/19 10:05:08;;;;;;;12.07;5.75;;;27.80;53.40;;;;;;6137190;23;20024;-94
2023/07/19 10:07:38;;;;;;;12.90;6.20;;;27.90;53.00;;;;;;6138112;23;20451;-94
2023/07/19 10:10:18;;;;;;;9.57;4.90;;;27.90;52.90;;;;;;6139487;23;20067;-94
2023/07/19 10:12:47;;;;;;;9.13;4.97;;;28.10;53.10;;;;;;6136835;23;20067;-93
2023/07/19 10:15:18;;;;;;;11.13;5.35;;;28.10;52.20;;;;;;6136594;23;20021;-93
2023/07/19 10:17:58;;;;;;;12.05;5.63;;;28.30;50.90;;;;;;6137994;23;20013;-94
2023/07/19 10:20:34;;;;;;;12.68;5.45;;;28.40;51.50;;;;;;6137131;23;20017;-94
2023/07/19 10:23:08;;;;;;;10.38;5.28;;;28.30;51.40;;;;;;6137107;23;20391;-94
2023/07/19 10:25:38;;;;;;;9.10;4.60;;;28.50;51.00;;;;;;6137235;23;20447;-93
2023/07/19 10:28:08;;;;;;;10.07;5.05;;;28.60;50.30;;;;;;6136993;23;20079;-94
2023/07/19 10:30:45;;;;;;;10.88;4.80;;;28.80;50.20;;;;;;6137113;23;20021;-94
2023/07/19 10:33:14;;;;;;;10.32;5.30;;;28.90;50.00;;;;;;6162014;23;20021;-95
2023/07/19 10:35:42;;;;;;;11.32;5.90;;;29.00;49.00;;;;;;6137103;23;20025;-93
2023/07/19 10:38:27;;;;;;;11.00;4.97;;;29.00;48.80;;;;;;6137925;23;20021;-93
2023/07/19 10:41:09;;;;;;;9.38;5.78;;;29.10;47.90;;;;;;6137972;23;20532;-93
2023/07/19 10:43:37;;;;;;;10.52;5.40;;;29.10;49.10;;;;;;6137065;23;20017;-93
2023/07/19 10:46:08;;;;;;;10.52;5.15;;;28.80;49.20;;;;;;6161539;23;20076;-93
2023/07/19 10:48:37;;;;;;;10.73;5.30;;;28.90;51.10;;;;;;6137375;23;20344;-93
2023/07/19 10:51:08;;;;;;;10.37;4.90;;;29.00;49.20;;;;;;6137455;23;20325;-93
2023/07/19 10:53:56;;;;;;;11.63;5.55;;;29.00;47.80;;;;;;6136733;23;20075;-94
2023/07/19 10:56:25;;;;;;;11.02;5.05;;;29.10;49.00;;;;;;6136881;23;20023;-93
2023/07/19 10:59:00;;;;;;;10.98;5.07;;;29.20;50.10;;;;;;6136897;23;20041;-93
2023/07/19 11:01:29;;;;;;;10.93;5.13;;;29.30;48.40;;;;;;6136799;23;20021;-93
2023/07/19 11:04:02;;;;;;;11.13;4.80;;;29.40;49.20;;;;;;6140350;23;20075;-94
2023/07/19 11:06:33;;;;;;;10.18;5.22;;;29.20;47.80;;;;;;6165547;23;20451;-93
2023/07/19 11:09:08;;;;;;;12.20;4.93;;;29.10;49.30;;;;;;6138996;23;20020;-92
2023/07/19 11:11:39;;;;;;;10.45;4.72;;;29.40;48.40;;;;;;6138584;23;20049;-93
2023/07/19 11:14:06;;;;;;;12.52;5.70;;;29.40;47.60;;;;;;6138465;23;20028;-93
2023/07/19 11:16:34;;;;;;;10.30;4.93;;;29.50;48.80;;;;;;6138703;23;20021;-92
2023/07/19 11:19:01;;;;;;;9.93;4.38;;;29.50;46.50;;;;;;6139613;23;21089;-95
2023/07/19 11:21:29;;;;;;;9.35;4.65;;;29.50;43.50;;;;;;6140622;23;20040;-96
2023/07/19 11:23:56;;;;;;;9.57;4.47;;;29.60;43.20;;;;;;6141343;23;20226;-95
2023/07/19 11:26:23;;;;;;;8.38;4.20;;;29.70;43.60;;;;;;6165573;23;20100;-95
2023/07/19 11:28:59;;;;;;;8.30;4.23;;;29.80;43.40;;;;;;6165365;23;20321;-96
2023/07/19 11:31:40;;;;;;;11.57;4.43;;;30.00;43.10;;;;;;6140801;23;20021;-96
2023/07/19 11:34:10;;;;;;;9.10;4.63;;;30.10;43.40;;;;;;6138580;23;20017;-95
2023/07/19 11:36:44;;;;;;;11.40;4.70;;;30.20;41.80;;;;;;6138885;23;20075;-94
2023/07/19 11:39:18;;;;;;;10.18;4.68;;;30.30;42.00;;;;;;6162744;23;20103;-94
2023/07/19 11:41:46;;;;;;;9.17;4.30;;;30.30;42.70;;;;;;6138691;23;20562;-94
2023/07/19 11:44:22;;;;;;;14.77;4.22;;;30.40;43.20;;;;;;6139354;23;20032;-94
2023/07/19 11:46:52;;;;;;;8.00;4.05;;;30.40;42.20;;;;;;6139636;23;20013;-94
2023/07/19 11:49:19;;;;;;;9.07;4.40;;;30.40;40.80;;;;;;6138468;23;20025;-94
2023/07/19 11:51:46;;;;;;;11.93;5.57;;;30.30;40.40;;;;;;6138696;23;20837;-94
2023/07/19 11:54:15;;;;;;;9.17;3.97;;;30.30;41.40;;;;;;6133271;23;20116;-94
2023/07/19 11:56:42;;;;;;;10.80;4.00;;;30.40;42.40;;;;;;6158130;23;20436;-95
2023/07/19 11:59:09;;;;;;;9.43;4.10;;;30.10;41.80;;;;;;6134037;23;20024;-94
2023/07/19 12:01:37;;;;;;;9.05;4.38;;;30.00;41.90;;;;;;6133401;23;20017;-94
2023/07/19 12:04:04;;;;;;;9.93;4.03;;;30.10;42.50;;;;;;6157773;23;20041;-94
2023/07/19 12:06:31;;;;;;;9.20;4.33;;;30.10;41.80;;;;;;6157863;23;20455;-94
2023/07/19 12:08:59;;;;;;;7.85;4.18;;;30.20;41.80;;;;;;6157771;23;20381;-93
2023/07/19 12:11:26;;;;;;;9.77;4.63;;;30.30;42.60;;;;;;6157805;23;20025;-94
2023/07/19 12:13:57;;;;;;;7.20;3.85;;;30.10;43.30;;;;;;6157771;23;20106;-94
2023/07/19 12:16:25;;;;;;;8.65;4.32;;;30.10;45.20;;;;;;6133552;23;20029;-94
2023/07/19 12:18:52;;;;;;;9.60;4.60;;;30.20;43.50;;;;;;6133115;23;20056;-94
2023/07/19 12:21:19;;;;;;;8.73;4.28;;;30.20;42.40;;;;;;6133562;23;20029;-94
2023/07/19 12:23:47;;;;;;;9.82;4.53;;;30.20;42.00;;;;;;6158237;23;20104;-95
2023/07/19 12:26:43;;;;;;;11.98;4.53;;;30.10;42.60;;;;;;6158454;23;20107;-94
2023/07/19 12:29:11;;;;;;;9.48;4.18;;;29.90;42.30;;;;;;6157499;23;20018;-94
2023/07/19 12:31:38;;;;;;;11.87;4.00;;;29.80;44.50;;;;;;6157839;23;20488;-94
2023/07/19 12:34:05;;;;;;;10.88;4.20;;;29.70;42.80;;;;;;6157560;23;20022;-94
2023/07/19 12:36:32;;;;;;;8.10;3.83;;;29.70;43.60;;;;;;6133019;23;20032;-94
2023/07/19 12:39:02;;;;;;;8.43;3.72;;;29.80;41.80;;;;;;6157284;23;20021;-94
2023/07/19 12:41:29;;;;;;;9.35;3.85;;;30.00;42.10;;;;;;6133276;23;20017;-94
2023/07/19 12:43:58;;;;;;;6.87;3.50;;;30.10;43.30;;;;;;6133715;23;20018;-95
2023/07/19 12:46:25;;;;;;;7.00;3.33;;;29.90;40.50;;;;;;6157505;23;20024;-95
2023/07/19 12:48:52;;;;;;;7.78;3.95;;;29.90;40.90;;;;;;6157192;23;20552;-94
2023/07/19 12:51:20;;;;;;;7.85;3.80;;;29.90;40.30;;;;;;6133207;23;20049;-94
2023/07/19 12:53:47;;;;;;;7.22;3.80;;;29.90;41.90;;;;;;6162002;23;20469;-94
2023/07/19 12:56:15;;;;;;;7.70;3.67;;;30.10;41.40;;;;;;6138051;23;20021;-94